createdAt,value
2022-12-25T00:01:49.525Z,9.50
2022-12-25T00:04:17.336Z,9.50
2022-12-25T00:06:45.355Z,9.50
2022-12-25T00:09:14.611Z,9.51
2022-12-25T00:11:42.483Z,9.50
2022-12-25T00:14:10.256Z,9.51
2022-12-25T00:16:38.286Z,9.51
2022-12-25T00:19:06.170Z,9.51
2022-12-25T00:21:34.196Z,9.51
2022-12-25T00:24:03.505Z,9.50
2022-12-25T00:26:32.749Z,9.51
2022-12-25T00:29:00.974Z,9.49
2022-12-25T00:31:28.999Z,9.47
2022-12-25T00:33:56.996Z,9.47
2022-12-25T00:36:24.915Z,9.47
2022-12-25T00:38:52.675Z,9.45
2022-12-25T00:41:43.159Z,9.44
2022-12-25T00:44:14.010Z,9.41
2022-12-25T00:46:42.642Z,9.39
2022-12-25T00:49:11.260Z,9.39
2022-12-25T00:51:39.144Z,9.37
2022-12-25T00:54:06.965Z,9.36
2022-12-25T00:56:35.132Z,9.34
2022-12-25T00:59:02.990Z,9.33
2022-12-25T01:01:32.581Z,9.33
2022-12-25T01:04:01.013Z,9.32
2022-12-25T01:06:29.196Z,9.29
2022-12-25T01:09:14.746Z,9.30
2022-12-25T01:11:42.645Z,9.27
2022-12-25T01:14:11.166Z,9.28
2022-12-25T01:16:41.094Z,9.28
2022-12-25T01:19:09.471Z,9.25
2022-12-25T01:21:37.343Z,9.26
2022-12-25T01:24:05.422Z,9.27
2022-12-25T01:26:33.323Z,9.27
2022-12-25T01:29:02.447Z,9.26
2022-12-25T01:31:30.317Z,9.26
2022-12-25T01:33:59.525Z,9.30
2022-12-25T01:36:28.002Z,9.30
2022-12-25T01:38:55.921Z,9.29
2022-12-25T01:41:26.272Z,9.31
2022-12-25T01:44:05.317Z,9.32
2022-12-25T01:46:34.200Z,9.31
2022-12-25T01:49:08.925Z,9.33
2022-12-25T01:51:41.082Z,9.33
2022-12-25T01:54:13.123Z,9.32
2022-12-25T01:56:43.424Z,9.32
2022-12-25T01:59:13.659Z,9.34
2022-12-25T02:01:41.719Z,9.35
2022-12-25T02:04:22.403Z,9.39
2022-12-25T02:06:52.732Z,9.37
2022-12-25T02:09:20.662Z,9.39
2022-12-25T02:11:57.649Z,9.40
2022-12-25T02:14:26.210Z,9.41
2022-12-25T02:17:08.336Z,9.44
2022-12-25T02:19:58.881Z,9.44
2022-12-25T02:22:38.676Z,9.48
2022-12-25T02:25:22.916Z,9.50
2022-12-25T02:28:15.063Z,9.50
2022-12-25T02:30:47.302Z,9.53
2022-12-25T02:33:45.942Z,9.53
2022-12-25T02:36:21.981Z,9.55
2022-12-25T02:39:12.495Z,9.59
2022-12-25T02:41:44.635Z,9.58
2022-12-25T02:44:37.794Z,9.60
2022-12-25T02:47:24.928Z,9.58
2022-12-25T02:50:11.975Z,9.61
2022-12-25T02:52:59.779Z,9.63
2022-12-25T02:55:51.312Z,9.66
2022-12-25T02:58:41.032Z,9.65
2022-12-25T03:01:33.568Z,9.67
2022-12-25T03:04:23.614Z,9.65
2022-12-25T03:07:10.245Z,9.68
2022-12-25T03:09:59.481Z,9.68
2022-12-25T03:12:43.572Z,9.70
2022-12-25T03:15:31.195Z,9.69
2022-12-25T03:18:04.152Z,9.70
2022-12-25T03:20:49.987Z,9.45
2022-12-25T03:23:41.330Z,9.67
2022-12-25T03:26:27.414Z,9.69
2022-12-25T03:28:55.469Z,9.70
2022-12-25T03:31:39.926Z,9.73
2022-12-25T03:34:48.222Z,9.73
2022-12-25T03:37:50.402Z,9.73
2022-12-25T03:40:45.207Z,9.73
2022-12-25T03:43:40.365Z,9.73
2022-12-25T03:46:32.583Z,9.73
2022-12-25T03:49:25.749Z,9.73
2022-12-25T03:52:16.142Z,9.70
2022-12-25T03:55:04.340Z,9.71
2022-12-25T03:57:52.720Z,9.72
2022-12-25T04:00:38.498Z,9.70
2022-12-25T04:03:23.853Z,9.70
2022-12-25T04:06:09.276Z,9.68
2022-12-25T04:08:55.918Z,9.71
2022-12-25T04:11:41.271Z,9.69
2022-12-25T04:14:26.614Z,9.68
2022-12-25T04:17:11.808Z,9.68
2022-12-25T04:19:56.895Z,9.67
2022-12-25T04:22:42.052Z,9.68
2022-12-25T04:25:29.269Z,9.69
2022-12-25T04:28:19.600Z,9.70
2022-12-25T04:31:05.397Z,9.68
2022-12-25T04:33:50.509Z,9.68
2022-12-25T04:36:18.477Z,9.68
2022-12-25T04:38:46.298Z,9.70
2022-12-25T04:41:15.581Z,9.72
2022-12-25T04:43:43.532Z,9.71
2022-12-25T04:46:11.393Z,9.71
2022-12-25T04:48:39.438Z,9.73
2022-12-25T04:51:12.322Z,9.75
2022-12-25T04:53:40.028Z,9.46
2022-12-25T04:56:07.999Z,9.70
2022-12-25T04:58:37.335Z,9.74
2022-12-25T05:01:06.138Z,9.72
2022-12-25T05:03:34.623Z,9.72
2022-12-25T05:06:03.171Z,9.72
2022-12-25T05:08:32.161Z,9.72
2022-12-25T05:11:00.110Z,9.72
2022-12-25T05:13:27.966Z,9.72
2022-12-25T05:15:57.234Z,9.75
2022-12-25T05:18:25.764Z,9.73
2022-12-25T05:20:54.280Z,9.74
2022-12-25T05:23:22.898Z,9.74
2022-12-25T05:25:50.763Z,9.75
2022-12-25T05:28:19.217Z,9.76
2022-12-25T05:30:46.921Z,9.76
2022-12-25T05:33:16.096Z,9.77
2022-12-25T05:35:43.931Z,9.75
2022-12-25T05:38:11.762Z,9.76
2022-12-25T05:40:41.805Z,9.77
2022-12-25T05:43:10.097Z,9.75
2022-12-25T05:45:37.864Z,9.75
2022-12-25T05:48:05.914Z,9.75
2022-12-25T05:50:37.781Z,9.77
2022-12-25T05:53:08.316Z,9.75
2022-12-25T05:55:37.158Z,9.75
2022-12-25T05:58:05.340Z,9.74
2022-12-25T06:00:33.818Z,9.75
2022-12-25T06:03:02.143Z,9.74
2022-12-25T06:05:31.102Z,9.76
2022-12-25T06:08:00.202Z,9.75
2022-12-25T06:10:28.087Z,9.74
2022-12-25T06:12:55.881Z,9.74
2022-12-25T06:15:23.766Z,9.73
2022-12-25T06:17:51.543Z,9.72
2022-12-25T06:20:19.555Z,9.72
2022-12-25T06:22:47.436Z,9.72
2022-12-25T06:25:16.857Z,9.73
2022-12-25T06:27:44.705Z,9.72
2022-12-25T06:30:12.968Z,9.72
2022-12-25T06:32:40.945Z,9.71
2022-12-25T06:35:09.276Z,9.72
2022-12-25T06:37:36.977Z,9.72
2022-12-25T06:40:05.674Z,9.72
2022-12-25T06:42:34.779Z,9.72
2022-12-25T06:45:02.743Z,9.71
2022-12-25T06:47:30.581Z,9.70
2022-12-25T06:49:58.334Z,9.71
2022-12-25T06:52:26.344Z,9.71
2022-12-25T06:54:54.138Z,9.70
2022-12-25T06:57:21.875Z,9.71
2022-12-25T06:59:55.183Z,9.73
2022-12-25T07:02:25.396Z,9.71
2022-12-25T07:04:54.060Z,9.72
2022-12-25T07:07:23.654Z,9.72
2022-12-25T07:09:51.570Z,9.71
2022-12-25T07:12:21.110Z,9.74
2022-12-25T07:14:50.317Z,9.73
2022-12-25T07:17:21.131Z,9.74
2022-12-25T07:19:49.193Z,9.73
2022-12-25T07:22:17.770Z,9.74
2022-12-25T07:24:45.669Z,9.74
2022-12-25T07:27:13.495Z,9.74
2022-12-25T07:29:41.434Z,9.75
2022-12-25T07:32:10.031Z,9.75
2022-12-25T07:34:39.220Z,9.77
2022-12-25T07:37:06.977Z,9.76
2022-12-25T07:39:35.580Z,9.76
2022-12-25T07:42:03.394Z,9.77
2022-12-25T07:44:40.671Z,9.78
2022-12-25T07:47:08.500Z,9.77
2022-12-25T07:49:39.589Z,9.79
2022-12-25T07:52:08.704Z,9.79
2022-12-25T07:54:36.525Z,9.78
2022-12-25T07:57:04.452Z,9.79
2022-12-25T07:59:32.385Z,9.80
2022-12-25T08:02:00.495Z,9.81
2022-12-25T08:04:28.571Z,9.80
2022-12-25T08:06:56.785Z,9.82
2022-12-25T08:09:26.128Z,9.83
2022-12-25T08:11:54.058Z,9.83
2022-12-25T08:14:21.895Z,9.82
2022-12-25T08:16:52.699Z,9.83
2022-12-25T08:19:20.692Z,9.83
2022-12-25T08:21:48.483Z,9.84
2022-12-25T08:24:16.845Z,9.86
2022-12-25T08:26:45.959Z,9.87
2022-12-25T08:29:13.754Z,9.87
2022-12-25T08:31:46.333Z,9.89
2022-12-25T08:34:15.056Z,9.89
2022-12-25T08:36:42.903Z,9.87
2022-12-25T08:39:10.997Z,9.89
2022-12-25T08:41:39.103Z,9.90
2022-12-25T08:44:08.721Z,9.91
2022-12-25T08:46:36.792Z,9.90
2022-12-25T08:49:04.712Z,9.90
2022-12-25T08:51:32.564Z,9.92
2022-12-25T08:54:01.563Z,9.92
2022-12-25T08:56:29.593Z,9.93
2022-12-25T08:58:57.597Z,9.93
2022-12-25T09:01:26.877Z,9.95
2022-12-25T09:03:54.888Z,9.95
2022-12-25T09:06:22.807Z,9.96
2022-12-25T09:08:51.308Z,9.96
2022-12-25T09:11:20.620Z,9.98
2022-12-25T09:13:48.480Z,9.99
2022-12-25T09:16:19.065Z,10.00
2022-12-25T09:18:48.440Z,10.02
2022-12-25T09:21:17.655Z,10.04
2022-12-25T09:23:46.131Z,10.04
2022-12-25T09:26:15.890Z,10.05
2022-12-25T09:28:50.627Z,10.05
2022-12-25T09:31:22.466Z,10.05
2022-12-25T09:33:52.251Z,10.06
2022-12-25T09:36:23.195Z,10.05
2022-12-25T09:38:51.072Z,10.05
2022-12-25T09:41:24.031Z,10.06
2022-12-25T09:43:56.339Z,10.06
2022-12-25T09:46:34.844Z,10.03
2022-12-25T09:49:14.047Z,10.02
2022-12-25T09:51:45.206Z,9.99
2022-12-25T09:54:20.721Z,9.98
2022-12-25T09:56:48.731Z,9.92
2022-12-25T09:59:27.182Z,9.93
2022-12-25T10:02:05.741Z,9.90
2022-12-25T10:04:52.139Z,9.86
2022-12-25T10:07:30.493Z,9.84
2022-12-25T10:10:13.429Z,9.83
2022-12-25T10:12:50.352Z,9.79
2022-12-25T10:15:31.545Z,9.78
2022-12-25T10:18:18.298Z,9.76
2022-12-25T10:20:53.134Z,9.74
2022-12-25T10:23:27.401Z,9.72
2022-12-25T10:25:55.615Z,9.69
2022-12-25T10:28:31.021Z,9.71
2022-12-25T10:31:03.190Z,9.68
2022-12-25T10:33:31.952Z,9.66
2022-12-25T10:36:01.261Z,9.69
2022-12-25T10:38:29.145Z,9.68
2022-12-25T10:41:09.896Z,9.70
2022-12-25T10:43:42.564Z,9.67
2022-12-25T10:46:12.769Z,9.67
2022-12-25T10:48:44.612Z,9.69
2022-12-25T10:51:14.182Z,9.69
2022-12-25T10:53:44.347Z,9.68
2022-12-25T10:56:17.764Z,9.69
2022-12-25T10:58:45.721Z,9.67
2022-12-25T11:01:16.352Z,9.68
2022-12-25T11:03:48.392Z,9.68
2022-12-25T11:06:26.445Z,9.68
2022-12-25T11:08:58.543Z,9.68
2022-12-25T11:11:28.000Z,9.67
2022-12-25T11:13:59.366Z,9.69
2022-12-25T11:16:30.280Z,9.70
2022-12-25T11:18:59.905Z,9.71
2022-12-25T11:21:33.936Z,9.72
2022-12-25T11:24:03.513Z,9.71
2022-12-25T11:26:36.532Z,9.72
2022-12-25T11:29:09.219Z,9.72
2022-12-25T11:31:40.597Z,9.71
2022-12-25T11:34:16.417Z,9.73
2022-12-25T11:36:48.404Z,9.71
2022-12-25T11:39:28.891Z,9.71
2022-12-25T11:42:03.585Z,9.72
2022-12-25T11:44:40.287Z,9.73
2022-12-25T11:47:14.685Z,9.72
2022-12-25T11:49:50.389Z,9.74
2022-12-25T11:52:23.159Z,9.75
2022-12-25T11:54:59.258Z,9.78
2022-12-25T11:57:30.275Z,9.77
2022-12-25T12:00:04.256Z,9.80
2022-12-25T12:02:37.901Z,9.80
2022-12-25T12:05:14.792Z,9.83
2022-12-25T12:07:56.545Z,9.84
2022-12-25T12:10:33.376Z,9.82
2022-12-25T12:13:19.123Z,9.85
2022-12-25T12:15:48.573Z,9.83
2022-12-25T12:18:22.603Z,9.88
2022-12-25T12:21:11.001Z,9.87
2022-12-25T12:23:51.007Z,9.89
2022-12-25T12:26:21.280Z,9.89
2022-12-25T12:28:50.465Z,9.91
2022-12-25T12:31:18.460Z,9.90
2022-12-25T12:33:53.482Z,9.95
2022-12-25T12:36:34.558Z,9.94
2022-12-25T12:39:06.210Z,9.95
2022-12-25T12:41:46.573Z,9.97
2022-12-25T12:44:17.588Z,9.97
2022-12-25T12:46:53.952Z,10.00
2022-12-25T12:49:24.107Z,9.99
2022-12-25T12:52:03.449Z,9.99
2022-12-25T12:54:32.786Z,10.01
2022-12-25T12:57:02.620Z,10.01
2022-12-25T12:59:39.051Z,10.03
2022-12-25T13:02:28.009Z,10.02
2022-12-25T13:05:03.670Z,10.03
2022-12-25T13:07:44.974Z,10.03
2022-12-25T13:10:26.496Z,10.04
2022-12-25T13:12:56.115Z,10.03
2022-12-25T13:15:27.374Z,10.04
2022-12-25T13:17:57.853Z,10.04
2022-12-25T13:20:35.583Z,10.06
2022-12-25T13:23:14.831Z,10.06
2022-12-25T13:25:44.030Z,10.06
2022-12-25T13:28:15.381Z,10.08
2022-12-25T13:30:43.643Z,10.08
2022-12-25T13:33:19.531Z,10.10
2022-12-25T13:35:48.337Z,10.09
2022-12-25T13:38:18.153Z,10.10
2022-12-25T13:41:07.623Z,10.13
2022-12-25T13:43:35.612Z,10.11
2022-12-25T13:46:03.409Z,10.12
2022-12-25T13:48:31.473Z,10.14
2022-12-25T13:51:00.939Z,10.16
2022-12-25T13:53:29.015Z,10.16
2022-12-25T13:56:00.272Z,10.19
2022-12-25T13:58:31.556Z,10.21
2022-12-25T14:01:01.797Z,10.22
2022-12-25T14:03:36.250Z,10.23
2022-12-25T14:06:06.454Z,10.24
2022-12-25T14:08:36.488Z,10.26
2022-12-25T14:11:07.788Z,10.26
2022-12-25T14:13:38.892Z,10.27
2022-12-25T14:16:08.391Z,10.26
2022-12-25T14:18:36.756Z,10.26
2022-12-25T14:21:07.990Z,10.27
2022-12-25T14:23:42.779Z,10.28
2022-12-25T14:26:22.726Z,10.28
2022-12-25T14:29:18.113Z,10.26
2022-12-25T14:31:49.471Z,10.24
2022-12-25T14:34:21.894Z,10.28
2022-12-25T14:36:51.832Z,10.27
2022-12-25T14:39:34.817Z,10.29
2022-12-25T14:42:14.638Z,10.30
2022-12-25T14:44:42.871Z,10.29
2022-12-25T14:47:18.100Z,10.33
2022-12-25T14:49:47.242Z,10.32
2022-12-25T14:52:20.169Z,10.36
2022-12-25T14:54:50.874Z,10.35
2022-12-25T14:57:26.010Z,10.37
2022-12-25T15:00:05.301Z,10.40
2022-12-25T15:02:41.679Z,10.41
2022-12-25T15:05:32.678Z,10.40
2022-12-25T15:08:21.373Z,10.40
2022-12-25T15:11:00.437Z,10.42
2022-12-25T15:13:31.796Z,10.45
2022-12-25T15:16:04.665Z,10.46
2022-12-25T15:18:35.382Z,10.19
2022-12-25T15:21:04.145Z,10.43
2022-12-25T15:23:31.992Z,10.47
2022-12-25T15:25:59.809Z,10.49
2022-12-25T15:28:27.653Z,10.49
2022-12-25T15:30:57.200Z,10.51
2022-12-25T15:33:28.784Z,10.50
2022-12-25T15:35:58.502Z,10.47
2022-12-25T15:38:27.277Z,10.50
2022-12-25T15:40:55.761Z,10.51
2022-12-25T15:43:40.284Z,10.51
2022-12-25T15:46:11.054Z,10.52
2022-12-25T15:48:39.035Z,10.53
2022-12-25T15:51:06.935Z,10.54
2022-12-25T15:53:34.847Z,10.55
2022-12-25T15:56:02.740Z,10.57
2022-12-25T15:58:30.521Z,10.58
2022-12-25T16:00:58.313Z,10.58
2022-12-25T16:03:27.763Z,10.60
2022-12-25T16:05:55.786Z,10.60
2022-12-25T16:08:24.063Z,10.60
2022-12-25T16:10:53.012Z,10.62
2022-12-25T16:13:20.828Z,10.64
2022-12-25T16:15:48.654Z,10.65
2022-12-25T16:18:16.553Z,10.66
2022-12-25T16:20:45.789Z,10.68
2022-12-25T16:23:13.688Z,10.68
2022-12-25T16:25:41.464Z,10.69
2022-12-25T16:28:10.318Z,10.69
2022-12-25T16:30:46.389Z,10.72
2022-12-25T16:33:15.418Z,10.71
2022-12-25T16:35:45.303Z,10.73
2022-12-25T16:38:13.316Z,10.73
2022-12-25T16:40:41.384Z,10.74
2022-12-25T16:43:09.298Z,10.76
2022-12-25T16:45:39.489Z,10.78
2022-12-25T16:48:08.773Z,10.79
2022-12-25T16:50:39.228Z,10.80
2022-12-25T16:53:08.719Z,10.82
2022-12-25T16:55:38.776Z,10.82
2022-12-25T16:58:07.813Z,10.84
2022-12-25T17:00:35.879Z,10.84
2022-12-25T17:03:03.953Z,10.85
2022-12-25T17:05:34.565Z,10.88
2022-12-25T17:08:02.519Z,10.88
2022-12-25T17:10:32.452Z,10.91
2022-12-25T17:13:00.598Z,10.91
2022-12-25T17:15:29.081Z,10.92
2022-12-25T17:17:57.027Z,10.93
2022-12-25T17:20:25.095Z,10.95
2022-12-25T17:22:53.050Z,10.96
2022-12-25T17:25:21.020Z,10.96
2022-12-25T17:27:51.136Z,10.99
2022-12-25T17:30:19.055Z,10.97
2022-12-25T17:32:47.185Z,10.98
2022-12-25T17:35:15.293Z,10.98
2022-12-25T17:37:45.467Z,11.01
2022-12-25T17:40:14.229Z,11.01
2022-12-25T17:42:42.288Z,11.01
2022-12-25T17:45:16.519Z,11.03
2022-12-25T17:47:47.346Z,11.02
2022-12-25T17:50:25.514Z,11.02
2022-12-25T17:52:53.857Z,11.02
2022-12-25T17:55:21.767Z,11.02
2022-12-25T17:57:49.889Z,11.02
2022-12-25T18:00:20.325Z,11.05
2022-12-25T18:02:48.454Z,11.04
2022-12-25T18:05:16.698Z,11.05
2022-12-25T18:07:44.910Z,11.05
2022-12-25T18:10:14.850Z,11.05
2022-12-25T18:12:44.496Z,11.07
2022-12-25T18:15:13.235Z,11.07
2022-12-25T18:17:42.426Z,11.07
2022-12-25T18:20:12.924Z,11.09
2022-12-25T18:22:40.727Z,11.08
2022-12-25T18:25:09.409Z,11.10
2022-12-25T18:27:37.443Z,11.11
2022-12-25T18:30:06.205Z,11.12
2022-12-25T18:32:34.380Z,11.12
2022-12-25T18:35:04.418Z,11.14
2022-12-25T18:37:39.419Z,11.14
2022-12-25T18:40:10.325Z,11.16
2022-12-25T18:42:41.024Z,11.14
2022-12-25T18:45:11.650Z,11.17
2022-12-25T18:47:39.852Z,11.17
2022-12-25T18:50:10.765Z,11.19
2022-12-25T18:52:50.901Z,11.17
2022-12-25T18:55:21.113Z,11.18
2022-12-25T18:57:49.515Z,11.19
2022-12-25T19:00:18.204Z,11.20
2022-12-25T19:02:46.140Z,11.19
2022-12-25T19:05:15.701Z,11.21
2022-12-25T19:07:43.924Z,11.21
2022-12-25T19:10:11.786Z,11.21
2022-12-25T19:12:39.647Z,11.22
2022-12-25T19:15:08.511Z,11.22
2022-12-25T19:17:36.272Z,11.23
2022-12-25T19:20:05.937Z,11.22
2022-12-25T19:22:35.096Z,11.23
2022-12-25T19:25:03.128Z,11.23
2022-12-25T19:27:31.044Z,11.24
2022-12-25T19:29:58.820Z,11.23
2022-12-25T19:32:26.821Z,11.25
2022-12-25T19:34:54.647Z,11.25
2022-12-25T19:37:24.408Z,11.26
2022-12-25T19:39:54.047Z,11.28
2022-12-25T19:42:22.867Z,11.27
2022-12-25T19:44:51.203Z,11.29
2022-12-25T19:47:19.089Z,11.27
2022-12-25T19:49:52.535Z,11.29
2022-12-25T19:52:21.117Z,11.29
2022-12-25T19:54:53.048Z,11.32
2022-12-25T19:57:20.913Z,11.30
2022-12-25T19:59:50.147Z,11.34
2022-12-25T20:02:18.144Z,11.33
2022-12-25T20:04:46.008Z,11.34
2022-12-25T20:07:13.908Z,11.35
2022-12-25T20:09:41.697Z,11.35
2022-12-25T20:12:11.259Z,11.38
2022-12-25T20:14:39.123Z,11.37
2022-12-25T20:17:12.147Z,11.39
2022-12-25T20:19:43.372Z,11.39
2022-12-25T20:22:11.164Z,11.39
2022-12-25T20:24:39.004Z,11.40
2022-12-25T20:27:06.838Z,11.42
2022-12-25T20:29:37.413Z,11.43
2022-12-25T20:32:05.867Z,11.43
2022-12-25T20:34:33.678Z,11.43
2022-12-25T20:37:01.554Z,11.44
2022-12-25T20:39:29.399Z,11.44
2022-12-25T20:41:57.353Z,11.45
2022-12-25T20:44:25.235Z,11.45
2022-12-25T20:46:54.915Z,11.46
2022-12-25T20:49:22.765Z,11.45
2022-12-25T20:51:50.678Z,11.45
2022-12-25T20:54:18.508Z,11.46
2022-12-25T20:56:46.439Z,11.46
2022-12-25T20:59:14.554Z,11.46
2022-12-25T21:01:42.591Z,11.46
2022-12-25T21:04:16.168Z,11.48
2022-12-25T21:06:44.588Z,11.48
2022-12-25T21:09:12.396Z,11.47
2022-12-25T21:11:40.710Z,11.48
2022-12-25T21:14:08.766Z,11.48
2022-12-25T21:16:36.822Z,11.48
2022-12-25T21:19:04.753Z,11.49
2022-12-25T21:21:35.934Z,11.51
2022-12-25T21:24:03.922Z,11.49
2022-12-25T21:26:32.343Z,11.49
2022-12-25T21:29:02.184Z,11.50
2022-12-25T21:31:30.941Z,11.49
2022-12-25T21:33:57.977Z,11.50
2022-12-25T21:36:28.750Z,11.51
2022-12-25T21:38:59.870Z,11.51
2022-12-25T21:41:29.029Z,11.50
2022-12-25T21:43:57.399Z,11.51
2022-12-25T21:46:26.746Z,11.51
2022-12-25T21:48:55.454Z,11.50
2022-12-25T21:51:42.536Z,11.51
2022-12-25T21:54:13.783Z,11.50
2022-12-25T21:56:45.433Z,11.49
2022-12-25T21:59:16.318Z,11.45
2022-12-25T22:01:45.301Z,11.43
2022-12-25T22:04:15.310Z,11.38
2022-12-25T22:07:00.809Z,11.33
2022-12-25T22:09:30.644Z,11.28
2022-12-25T22:12:16.544Z,11.22
2022-12-25T22:14:56.641Z,11.18
2022-12-25T22:17:44.100Z,11.13
2022-12-25T22:20:15.012Z,11.11
2022-12-25T22:22:43.044Z,11.07
2022-12-25T22:25:12.700Z,11.07
2022-12-25T22:27:41.563Z,11.03
2022-12-25T22:30:11.899Z,11.03
2022-12-25T22:32:40.096Z,10.99
2022-12-25T22:35:08.678Z,10.98
2022-12-25T22:37:36.956Z,10.98
2022-12-25T22:40:06.172Z,10.97
2022-12-25T22:42:35.655Z,10.99
2022-12-25T22:45:04.648Z,10.96
2022-12-25T22:47:32.677Z,10.96
2022-12-25T22:50:00.564Z,10.96
2022-12-25T22:52:28.415Z,10.95
2022-12-25T22:54:56.298Z,10.95
2022-12-25T22:57:24.291Z,10.94
2022-12-25T22:59:54.096Z,10.93
2022-12-25T23:02:22.332Z,10.90
2022-12-25T23:04:50.253Z,10.89
2022-12-25T23:07:18.440Z,10.89
2022-12-25T23:09:46.473Z,10.87
2022-12-25T23:12:28.328Z,10.88
2022-12-25T23:14:58.045Z,10.88
2022-12-25T23:17:43.209Z,10.89
2022-12-25T23:20:31.427Z,10.89
2022-12-25T23:23:16.592Z,10.88
2022-12-25T23:26:01.874Z,10.88
2022-12-25T23:28:47.204Z,10.89
2022-12-25T23:31:16.705Z,10.92
2022-12-25T23:33:44.722Z,10.92
2022-12-25T23:36:12.588Z,10.93
2022-12-25T23:38:40.498Z,10.94
2022-12-25T23:41:08.954Z,10.96
2022-12-25T23:43:36.758Z,10.97
2022-12-25T23:46:04.985Z,10.98
2022-12-25T23:48:34.210Z,11.02
2022-12-25T23:51:04.363Z,11.02
2022-12-25T23:53:32.359Z,11.02
2022-12-25T23:56:00.456Z,11.04
2022-12-25T23:58:29.530Z,11.05
